createdAt,value
2022-10-21T00:01:26.874Z,17.60
2022-10-21T00:03:53.989Z,14.90
2022-10-21T00:06:20.998Z,15.70
2022-10-21T00:08:48.137Z,17.10
2022-10-21T00:11:15.232Z,15.90
2022-10-21T00:13:42.708Z,15.90
2022-10-21T00:16:13.588Z,13.80
2022-10-21T00:18:42.268Z,15.60
2022-10-21T00:21:11.007Z,15.50
2022-10-21T00:23:38.408Z,18.10
2022-10-21T00:26:05.450Z,17.70
2022-10-21T00:28:32.882Z,17.10
2022-10-21T00:31:00.171Z,17.00
2022-10-21T00:33:29.238Z,17.50
2022-10-21T00:35:57.678Z,18.30
2022-10-21T00:38:25.145Z,16.80
2022-10-21T00:40:52.389Z,16.40
2022-10-21T00:43:19.437Z,20.40
2022-10-21T00:45:48.631Z,17.10
2022-10-21T00:48:22.080Z,18.70
2022-10-21T00:50:56.010Z,18.70
2022-10-21T00:53:24.136Z,22.20
2022-10-21T00:55:56.669Z,19.40
2022-10-21T00:58:27.552Z,23.50
2022-10-21T01:00:59.227Z,23.70
2022-10-21T01:03:27.855Z,21.90
2022-10-21T01:05:57.788Z,22.80
2022-10-21T01:08:25.876Z,20.70
2022-10-21T01:10:53.376Z,23.70
2022-10-21T01:13:27.251Z,24.00
2022-10-21T01:16:03.531Z,26.50
2022-10-21T01:18:37.978Z,28.20
2022-10-21T01:21:31.372Z,22.40
2022-10-21T01:24:34.427Z,26.80
2022-10-21T01:27:14.402Z,24.70
2022-10-21T01:30:06.254Z,24.30
2022-10-21T01:32:47.537Z,28.00
2022-10-21T01:35:20.786Z,29.90
2022-10-21T01:37:57.332Z,27.00
2022-10-21T01:40:28.126Z,32.10
2022-10-21T01:42:58.022Z,28.80
2022-10-21T01:45:32.859Z,27.40
2022-10-21T01:48:04.013Z,28.20
2022-10-21T01:50:35.298Z,26.20
2022-10-21T01:53:06.483Z,26.00
2022-10-21T01:55:34.399Z,26.70
2022-10-21T01:58:04.084Z,23.40
2022-10-21T02:00:32.634Z,24.20
2022-10-21T02:03:02.006Z,27.00
2022-10-21T02:05:33.345Z,27.50
2022-10-21T02:08:00.669Z,30.80
2022-10-21T02:10:31.325Z,25.40
2022-10-21T02:13:01.737Z,29.20
2022-10-21T02:15:30.260Z,28.40
2022-10-21T02:18:04.502Z,25.00
2022-10-21T02:20:36.200Z,24.20
2022-10-21T02:23:04.149Z,23.10
2022-10-21T02:25:37.336Z,23.40
2022-10-21T02:28:05.544Z,24.40
2022-10-21T02:30:53.099Z,22.10
2022-10-21T02:33:28.233Z,25.50
2022-10-21T02:36:05.166Z,24.00
2022-10-21T02:41:05.985Z,23.10
2022-10-21T02:43:36.767Z,20.00
2022-10-21T02:46:08.523Z,20.70
2022-10-21T02:48:38.316Z,22.90
2022-10-21T02:51:06.569Z,23.70
2022-10-21T02:53:33.889Z,23.90
2022-10-21T02:56:01.754Z,22.30
2022-10-21T02:58:29.377Z,23.50
2022-10-21T03:00:56.918Z,20.70
2022-10-21T03:03:24.270Z,24.70
2022-10-21T03:05:51.804Z,20.70
2022-10-21T03:08:19.334Z,21.10
2022-10-21T03:10:52.933Z,21.10
2022-10-21T03:13:20.715Z,23.30
2022-10-21T03:15:47.808Z,20.70
2022-10-21T03:18:14.863Z,20.90
2022-10-21T03:20:42.213Z,20.10
2022-10-21T03:23:09.307Z,21.90
2022-10-21T03:25:36.435Z,19.40
2022-10-21T03:28:03.909Z,23.20
2022-10-21T03:30:30.918Z,21.70
2022-10-21T03:32:57.999Z,23.00
2022-10-21T03:35:25.351Z,23.10
2022-10-21T03:37:52.439Z,21.70
2022-10-21T03:40:19.920Z,22.40
2022-10-21T03:42:46.914Z,21.10
2022-10-21T03:45:14.364Z,22.70
2022-10-21T03:47:41.402Z,21.80
2022-10-21T03:50:13.899Z,21.60
2022-10-21T03:52:43.604Z,20.50
2022-10-21T03:55:11.366Z,22.20
2022-10-21T03:57:38.951Z,23.30
2022-10-21T04:00:08.589Z,22.80
2022-10-21T04:02:39.987Z,22.40
2022-10-21T04:05:08.578Z,23.80
2022-10-21T04:07:35.681Z,26.00
2022-10-21T04:10:02.736Z,22.00
2022-10-21T04:12:29.796Z,21.30
2022-10-21T04:14:57.005Z,24.40
2022-10-21T04:17:24.022Z,24.10
2022-10-21T04:19:50.943Z,23.40
2022-10-21T04:22:18.143Z,26.70
2022-10-21T04:24:45.239Z,21.80
2022-10-21T04:27:12.638Z,22.70
2022-10-21T04:29:40.080Z,21.50
2022-10-21T04:32:07.289Z,25.20
2022-10-21T04:34:34.293Z,22.50
2022-10-21T04:37:05.071Z,25.20
2022-10-21T04:39:32.998Z,27.40
2022-10-21T04:42:00.327Z,23.30
2022-10-21T04:44:28.157Z,21.50
2022-10-21T04:46:55.385Z,24.50
2022-10-21T04:49:22.694Z,24.00
2022-10-21T04:51:49.849Z,23.40
2022-10-21T04:54:16.933Z,26.20
2022-10-21T04:56:44.081Z,24.80
2022-10-21T04:59:11.421Z,25.50
2022-10-21T05:01:38.683Z,23.10
2022-10-21T05:04:05.775Z,26.30
2022-10-21T05:06:33.118Z,23.50
2022-10-21T05:09:00.558Z,25.90
2022-10-21T05:11:27.658Z,24.00
2022-10-21T05:13:54.817Z,22.30
2022-10-21T05:16:23.972Z,22.50
2022-10-21T05:18:51.576Z,23.80
2022-10-21T05:21:18.602Z,22.80
2022-10-21T05:23:45.658Z,21.70
2022-10-21T05:26:12.764Z,19.80
2022-10-21T05:28:40.027Z,22.40
2022-10-21T05:31:07.182Z,22.40
2022-10-21T05:33:34.422Z,22.30
2022-10-21T05:36:05.123Z,20.90
2022-10-21T05:38:32.504Z,21.50
2022-10-21T05:41:00.514Z,22.00
2022-10-21T05:43:28.387Z,23.60
2022-10-21T05:45:55.894Z,22.30
2022-10-21T05:48:23.136Z,19.60
2022-10-21T05:50:52.803Z,22.50
2022-10-21T05:53:20.052Z,20.00
2022-10-21T05:55:47.552Z,21.00
2022-10-21T05:58:14.629Z,23.00
2022-10-21T06:00:42.113Z,21.20
2022-10-21T06:03:09.801Z,19.50
2022-10-21T06:05:38.268Z,19.20
2022-10-21T06:08:05.644Z,22.90
2022-10-21T06:10:32.623Z,22.30
2022-10-21T06:13:00.310Z,21.40
2022-10-21T06:15:27.353Z,21.40
2022-10-21T06:17:55.501Z,19.00
2022-10-21T06:20:22.862Z,17.70
2022-10-21T06:22:49.893Z,20.40
2022-10-21T06:27:49.682Z,20.50
2022-10-21T06:30:16.875Z,22.00
2022-10-21T06:32:43.971Z,18.20
2022-10-21T06:35:11.469Z,20.80
2022-10-21T06:37:38.908Z,19.80
2022-10-21T06:40:07.633Z,20.70
2022-10-21T06:42:34.724Z,19.50
2022-10-21T06:45:01.786Z,23.20
2022-10-21T06:47:28.884Z,21.10
2022-10-21T06:49:55.969Z,21.80
2022-10-21T06:52:23.163Z,18.00
2022-10-21T06:54:51.249Z,17.30
2022-10-21T06:57:18.249Z,19.60
2022-10-21T06:59:45.281Z,17.20
2022-10-21T07:02:13.229Z,18.20
2022-10-21T07:04:56.524Z,19.50
2022-10-21T07:07:23.851Z,20.10
2022-10-21T07:09:51.070Z,21.20
2022-10-21T07:12:18.244Z,18.80
2022-10-21T07:14:45.520Z,20.00
2022-10-21T07:17:29.763Z,19.60
2022-10-21T07:19:57.357Z,18.60
2022-10-21T07:22:24.453Z,19.00
2022-10-21T07:24:51.723Z,20.10
2022-10-21T07:27:18.916Z,19.90
2022-10-21T07:29:46.189Z,20.20
2022-10-21T07:32:13.290Z,16.00
2022-10-21T07:34:40.416Z,19.60
2022-10-21T07:37:07.548Z,19.80
2022-10-21T07:39:35.227Z,20.30
2022-10-21T07:42:02.413Z,18.70
2022-10-21T07:44:29.638Z,24.70
2022-10-21T07:46:57.092Z,21.80
2022-10-21T07:49:25.459Z,18.00
2022-10-21T07:51:53.957Z,17.10
2022-10-21T07:54:21.619Z,17.90
2022-10-21T07:56:51.527Z,21.20
2022-10-21T07:59:20.247Z,20.50
2022-10-21T08:04:22.561Z,18.50
2022-10-21T08:06:50.875Z,18.60
2022-10-21T08:09:18.845Z,19.70
2022-10-21T08:11:46.000Z,18.20
2022-10-21T08:14:13.857Z,20.30
2022-10-21T08:16:41.315Z,20.10
2022-10-21T08:19:09.185Z,20.80
2022-10-21T08:21:37.523Z,18.30
2022-10-21T08:24:06.243Z,19.80
2022-10-21T08:26:33.867Z,21.40
2022-10-21T08:29:01.143Z,19.50
2022-10-21T08:31:28.160Z,18.60
2022-10-21T08:33:55.481Z,20.70
2022-10-21T08:36:25.089Z,19.20
2022-10-21T08:38:53.190Z,18.90
2022-10-21T08:41:37.384Z,21.00
2022-10-21T08:44:08.549Z,18.00
2022-10-21T08:46:41.133Z,18.20
2022-10-21T08:49:14.688Z,18.30
2022-10-21T08:51:47.478Z,19.70
2022-10-21T08:54:23.476Z,18.70
2022-10-21T08:56:56.499Z,22.00
2022-10-21T08:59:25.366Z,20.60
2022-10-21T09:02:02.582Z,20.20
2022-10-21T09:04:38.156Z,20.20
2022-10-21T09:07:13.313Z,20.00
2022-10-21T09:09:47.317Z,20.30
2022-10-21T09:12:21.537Z,19.40
2022-10-21T09:15:11.225Z,19.70
2022-10-21T09:17:57.698Z,19.60
2022-10-21T09:20:39.200Z,18.20
2022-10-21T09:23:30.172Z,17.10
2022-10-21T09:26:01.666Z,17.00
2022-10-21T09:28:30.264Z,19.70
2022-10-21T09:30:58.955Z,17.10
2022-10-21T09:33:29.969Z,25.50
2022-10-21T09:36:04.809Z,20.70
2022-10-21T09:38:41.280Z,15.90
2022-10-21T09:41:15.749Z,23.90
2022-10-21T09:43:42.902Z,18.20
2022-10-21T09:46:14.507Z,22.00
2022-10-21T09:49:16.219Z,19.70
2022-10-21T09:51:40.260Z,17.30
2022-10-21T09:54:12.816Z,20.30
2022-10-21T09:56:45.049Z,17.10
2022-10-21T09:59:14.289Z,17.40
2022-10-21T10:01:44.743Z,15.20
2022-10-21T10:04:23.292Z,20.30
2022-10-21T10:06:50.879Z,14.90
2022-10-21T10:09:27.132Z,15.80
2022-10-21T10:11:57.509Z,16.00
2022-10-21T10:14:31.217Z,17.10
2022-10-21T10:16:59.714Z,17.30
2022-10-21T10:19:28.836Z,22.00
2022-10-21T10:22:15.264Z,26.10
2022-10-21T10:24:43.656Z,18.50
2022-10-21T10:27:19.212Z,16.80
2022-10-21T10:29:53.851Z,17.50
2022-10-21T10:32:24.261Z,16.80
2022-10-21T10:34:58.835Z,12.60
2022-10-21T10:37:29.155Z,14.50
2022-10-21T10:39:59.235Z,13.00
2022-10-21T10:42:29.354Z,12.80
2022-10-21T10:45:00.478Z,14.40
2022-10-21T10:47:32.871Z,16.00
2022-10-21T10:50:00.139Z,16.30
2022-10-21T10:52:27.879Z,12.70
2022-10-21T10:55:19.199Z,13.90
2022-10-21T10:58:05.913Z,12.60
2022-10-21T11:00:44.157Z,16.60
2022-10-21T11:03:15.970Z,12.80
2022-10-21T11:05:46.202Z,13.60
2022-10-21T11:08:19.337Z,17.20
2022-10-21T11:10:50.161Z,15.60
2022-10-21T11:13:19.376Z,15.90
2022-10-21T11:16:11.549Z,11.70
2022-10-21T11:18:49.359Z,12.80
2022-10-21T11:21:34.222Z,16.80
2022-10-21T11:24:29.946Z,13.20
2022-10-21T11:27:04.490Z,16.20
2022-10-21T11:29:47.658Z,17.70
2022-10-21T11:32:27.763Z,13.00
2022-10-21T11:35:07.052Z,16.60
2022-10-21T11:37:49.289Z,14.00
2022-10-21T11:40:27.697Z,14.60
2022-10-21T11:42:57.762Z,14.70
2022-10-21T11:45:39.171Z,13.80
2022-10-21T11:48:18.353Z,17.70
2022-10-21T11:50:54.686Z,13.70
2022-10-21T11:53:37.800Z,13.90
2022-10-21T11:56:16.391Z,17.70
2022-10-21T11:58:56.867Z,16.80
2022-10-21T12:01:38.626Z,16.60
2022-10-21T12:04:24.534Z,16.00
2022-10-21T12:06:59.611Z,15.10
2022-10-21T12:09:32.021Z,13.10
2022-10-21T12:12:05.901Z,16.00
2022-10-21T12:14:38.019Z,13.30
2022-10-21T12:17:11.837Z,19.70
2022-10-21T12:19:39.575Z,13.00
2022-10-21T12:22:08.708Z,14.40
2022-10-21T12:24:47.698Z,17.90
2022-10-21T12:27:26.714Z,16.10
2022-10-21T12:30:07.009Z,16.90
2022-10-21T12:32:41.979Z,16.10
2022-10-21T12:35:16.111Z,18.70
2022-10-21T12:38:04.573Z,16.40
2022-10-21T12:40:43.786Z,17.40
2022-10-21T12:43:22.559Z,14.70
2022-10-21T12:46:02.399Z,14.70
2022-10-21T12:48:36.793Z,12.20
2022-10-21T12:51:06.934Z,12.40
2022-10-21T12:53:40.035Z,18.60
2022-10-21T12:56:08.831Z,18.30
2022-10-21T12:58:41.427Z,18.30
2022-10-21T13:01:25.817Z,15.10
2022-10-21T13:03:57.789Z,17.20
2022-10-21T13:06:58.133Z,15.80
2022-10-21T13:09:37.475Z,16.20
2022-10-21T13:12:18.683Z,16.30
2022-10-21T13:14:49.368Z,14.00
2022-10-21T13:17:50.232Z,14.00
2022-10-21T13:20:47.564Z,15.60
2022-10-21T13:23:32.541Z,16.00
2022-10-21T13:26:13.948Z,14.50
2022-10-21T13:28:41.266Z,13.40
2022-10-21T13:31:08.876Z,12.80
2022-10-21T13:33:38.619Z,12.60
2022-10-21T13:36:10.297Z,12.70
2022-10-21T13:38:39.405Z,14.30
2022-10-21T13:41:19.791Z,13.00
2022-10-21T13:43:52.752Z,17.10
2022-10-21T13:46:24.503Z,13.70
2022-10-21T13:48:52.185Z,12.70
2022-10-21T13:51:22.722Z,18.50
2022-10-21T13:53:54.183Z,16.30
2022-10-21T13:56:26.399Z,13.00
2022-10-21T13:58:54.099Z,16.90
2022-10-21T14:01:25.623Z,12.60
2022-10-21T14:03:53.774Z,13.10
2022-10-21T14:06:30.964Z,17.80
2022-10-21T14:08:58.864Z,14.20
2022-10-21T14:11:34.797Z,16.40
2022-10-21T14:14:09.829Z,15.50
2022-10-21T14:16:40.695Z,14.90
2022-10-21T14:19:12.415Z,10.10
2022-10-21T14:21:43.902Z,18.00
2022-10-21T14:24:26.120Z,13.90
2022-10-21T14:26:53.941Z,11.20
2022-10-21T14:29:21.709Z,16.60
2022-10-21T14:31:48.996Z,15.50
2022-10-21T14:34:24.878Z,15.30
2022-10-21T14:37:19.622Z,17.00
2022-10-21T14:39:46.837Z,12.80
2022-10-21T14:42:20.739Z,17.40
2022-10-21T14:44:49.886Z,12.30
2022-10-21T14:47:23.480Z,12.30
2022-10-21T14:49:52.843Z,12.90
2022-10-21T14:52:24.378Z,12.90
2022-10-21T14:54:56.028Z,10.80
2022-10-21T14:57:34.198Z,13.70
2022-10-21T15:00:15.632Z,13.90
2022-10-21T15:02:43.065Z,12.80
2022-10-21T15:05:31.781Z,13.10
2022-10-21T15:08:25.991Z,11.30
2022-10-21T15:11:25.644Z,11.80
2022-10-21T15:14:32.118Z,14.00
2022-10-21T15:17:01.463Z,17.40
2022-10-21T15:19:33.193Z,10.40
2022-10-21T15:22:02.715Z,12.60
2022-10-21T15:24:37.351Z,13.00
2022-10-21T15:27:05.924Z,13.60
2022-10-21T15:29:43.579Z,16.20
2022-10-21T15:32:13.759Z,13.70
2022-10-21T15:34:40.876Z,13.30
2022-10-21T15:37:08.533Z,12.80
2022-10-21T15:39:35.775Z,16.00
2022-10-21T15:42:03.619Z,14.00
2022-10-21T15:44:32.539Z,16.70
2022-10-21T15:47:02.797Z,17.00
2022-10-21T15:49:32.826Z,13.60
2022-10-21T15:51:59.996Z,13.50
2022-10-21T15:54:27.109Z,13.80
2022-10-21T15:56:55.681Z,16.90
2022-10-21T15:59:24.610Z,14.90
2022-10-21T16:01:52.611Z,15.40
2022-10-21T16:04:20.284Z,17.60
2022-10-21T16:06:49.089Z,18.10
2022-10-21T16:09:20.513Z,17.30
2022-10-21T16:11:59.059Z,14.30
2022-10-21T16:14:29.529Z,17.60
2022-10-21T16:17:01.042Z,17.90
2022-10-21T16:19:28.863Z,15.00
2022-10-21T16:21:56.404Z,14.40
2022-10-21T16:24:23.634Z,21.90
2022-10-21T16:26:51.953Z,17.90
2022-10-21T16:29:21.731Z,16.80
2022-10-21T16:31:49.045Z,18.60
2022-10-21T16:34:16.269Z,16.40
2022-10-21T16:36:43.465Z,19.80
2022-10-21T16:39:14.701Z,16.60
2022-10-21T16:41:42.302Z,19.80
2022-10-21T16:44:09.702Z,20.60
2022-10-21T16:46:40.072Z,20.00
2022-10-21T16:49:13.054Z,20.90
2022-10-21T16:51:40.635Z,18.40
2022-10-21T16:54:07.991Z,20.20
2022-10-21T16:56:35.115Z,20.40
2022-10-21T16:59:02.131Z,15.00
2022-10-21T17:01:29.650Z,17.60
2022-10-21T17:03:56.885Z,22.30
2022-10-21T17:06:26.301Z,21.80
2022-10-21T17:08:54.946Z,19.30
2022-10-21T17:11:23.838Z,19.60
2022-10-21T17:13:51.623Z,19.20
2022-10-21T17:16:20.272Z,18.60
2022-10-21T17:18:47.823Z,19.70
2022-10-21T17:21:21.714Z,21.30
2022-10-21T17:23:50.099Z,20.40
2022-10-21T17:26:18.407Z,21.40
2022-10-21T17:28:45.508Z,20.00
2022-10-21T17:31:17.437Z,20.10
2022-10-21T17:33:44.728Z,21.90
2022-10-21T17:36:12.770Z,23.40
2022-10-21T17:38:41.957Z,19.90
2022-10-21T17:41:10.012Z,21.20
2022-10-21T17:43:37.236Z,21.10
2022-10-21T17:46:04.470Z,21.50
2022-10-21T17:48:31.573Z,21.30
2022-10-21T17:51:00.932Z,18.60
2022-10-21T17:53:29.022Z,23.80
2022-10-21T17:56:03.702Z,19.60
2022-10-21T17:58:31.675Z,20.10
2022-10-21T18:00:59.436Z,24.00
2022-10-21T18:03:27.263Z,19.30
2022-10-21T18:05:55.761Z,20.90
2022-10-21T18:08:23.238Z,21.70
2022-10-21T18:10:56.613Z,21.00
2022-10-21T18:13:23.774Z,19.70
2022-10-21T18:15:51.556Z,22.30
2022-10-21T18:18:18.961Z,18.50
2022-10-21T18:20:46.015Z,19.20
2022-10-21T18:23:13.648Z,21.40
2022-10-21T18:25:41.542Z,22.70
2022-10-21T18:28:11.342Z,25.40
2022-10-21T18:30:44.042Z,20.70
2022-10-21T18:33:11.415Z,22.00
2022-10-21T18:35:38.676Z,24.50
2022-10-21T18:38:06.072Z,21.00
2022-10-21T18:40:33.643Z,22.70
2022-10-21T18:43:00.662Z,20.30
2022-10-21T18:45:27.770Z,22.70
2022-10-21T18:47:55.691Z,19.80
2022-10-21T18:50:22.682Z,24.40
2022-10-21T18:52:49.767Z,22.00
2022-10-21T18:55:17.041Z,25.70
2022-10-21T18:57:44.133Z,23.10
2022-10-21T19:00:13.366Z,25.10
2022-10-21T19:02:40.480Z,24.50
2022-10-21T19:05:08.710Z,22.30
2022-10-21T19:07:35.902Z,25.60
2022-10-21T19:10:03.325Z,21.20
2022-10-21T19:12:30.364Z,23.30
2022-10-21T19:14:58.137Z,23.00
2022-10-21T19:17:25.451Z,25.00
2022-10-21T19:19:52.679Z,24.30
2022-10-21T19:22:20.197Z,25.20
2022-10-21T19:24:47.899Z,25.00
2022-10-21T19:27:14.930Z,23.90
2022-10-21T19:29:43.581Z,24.60
2022-10-21T19:32:12.969Z,25.40
2022-10-21T19:34:40.185Z,23.90
2022-10-21T19:37:09.697Z,22.20
2022-10-21T19:39:36.798Z,25.70
2022-10-21T19:42:04.576Z,26.20
2022-10-21T19:44:31.668Z,22.90
2022-10-21T19:46:58.629Z,24.30
2022-10-21T19:49:25.776Z,24.00
2022-10-21T19:51:53.487Z,25.90
2022-10-21T19:54:20.641Z,22.80
2022-10-21T19:56:47.765Z,25.40
2022-10-21T19:59:14.881Z,26.70
2022-10-21T20:01:42.630Z,26.00
2022-10-21T20:04:09.839Z,23.10
2022-10-21T20:06:38.320Z,22.00
2022-10-21T20:09:08.313Z,24.40
2022-10-21T20:11:35.574Z,28.60
2022-10-21T20:14:04.328Z,27.10
2022-10-21T20:16:33.304Z,27.60
2022-10-21T20:19:01.149Z,26.40
2022-10-21T20:21:28.900Z,23.30
2022-10-21T20:23:57.924Z,26.20
2022-10-21T20:26:25.102Z,29.20
2022-10-21T20:28:52.493Z,23.80
2022-10-21T20:31:20.078Z,25.60
2022-10-21T20:33:48.794Z,27.30
2022-10-21T20:36:18.380Z,27.10
2022-10-21T20:38:45.788Z,27.40
2022-10-21T20:41:21.649Z,29.40
2022-10-21T20:43:49.243Z,23.30
2022-10-21T20:46:17.575Z,29.60
2022-10-21T20:48:46.783Z,30.10
2022-10-21T20:51:15.629Z,24.30
2022-10-21T20:56:15.898Z,30.10
2022-10-21T20:58:44.147Z,26.60
2022-10-21T21:01:12.561Z,29.60
2022-10-21T21:03:41.908Z,30.20
2022-10-21T21:06:10.069Z,29.50
2022-10-21T21:08:44.572Z,28.40
2022-10-21T21:11:17.213Z,31.80
2022-10-21T21:13:44.963Z,31.40
2022-10-21T21:16:13.851Z,31.40
2022-10-21T21:18:42.759Z,28.10
2022-10-21T21:21:12.500Z,29.50
2022-10-21T21:23:40.866Z,32.00
2022-10-21T21:26:10.750Z,32.40
2022-10-21T21:28:39.259Z,32.40
2022-10-21T21:31:10.527Z,32.90
2022-10-21T21:33:38.116Z,29.90
2022-10-21T21:36:06.907Z,29.90
2022-10-21T21:38:35.995Z,32.00
2022-10-21T21:41:06.686Z,33.30
2022-10-21T21:43:37.076Z,31.20
2022-10-21T21:46:04.654Z,31.10
2022-10-21T21:48:33.428Z,31.00
2022-10-21T21:51:05.514Z,34.50
2022-10-21T21:53:33.049Z,38.00
2022-10-21T21:56:03.645Z,30.40
2022-10-21T21:58:31.644Z,31.70
2022-10-21T22:00:58.802Z,29.30
2022-10-21T22:03:26.227Z,31.70
2022-10-21T22:05:53.240Z,32.90
2022-10-21T22:08:20.649Z,33.40
2022-10-21T22:10:47.826Z,30.40
2022-10-21T22:13:14.837Z,32.30
2022-10-21T22:15:48.150Z,32.00
2022-10-21T22:18:16.009Z,35.00
2022-10-21T22:20:43.122Z,32.30
2022-10-21T22:23:10.233Z,36.20
2022-10-21T22:25:37.484Z,32.10
2022-10-21T22:28:04.830Z,32.90
2022-10-21T22:30:32.018Z,32.70
2022-10-21T22:32:59.015Z,31.30
2022-10-21T22:35:27.300Z,33.50
2022-10-21T22:37:54.438Z,32.50
2022-10-21T22:40:22.092Z,31.70
2022-10-21T22:42:49.243Z,32.60
2022-10-21T22:45:16.504Z,36.50
2022-10-21T22:47:43.541Z,34.60
2022-10-21T22:50:11.661Z,34.10
2022-10-21T22:52:42.459Z,33.80
2022-10-21T22:55:11.423Z,33.90
2022-10-21T22:57:38.593Z,35.40
2022-10-21T23:00:07.326Z,34.60
2022-10-21T23:02:34.364Z,32.70
2022-10-21T23:05:01.414Z,39.90
2022-10-21T23:07:28.556Z,32.60
2022-10-21T23:09:55.568Z,35.70
2022-10-21T23:12:22.723Z,36.90
2022-10-21T23:14:49.853Z,37.90
2022-10-21T23:17:16.843Z,34.40
2022-10-21T23:19:43.914Z,33.50
2022-10-21T23:22:11.634Z,34.60
2022-10-21T23:24:38.915Z,32.00
2022-10-21T23:27:06.678Z,32.50
2022-10-21T23:29:33.937Z,33.40
2022-10-21T23:32:00.887Z,34.10
2022-10-21T23:34:28.003Z,35.30
2022-10-21T23:36:55.148Z,33.40
2022-10-21T23:39:22.590Z,34.90
2022-10-21T23:41:49.759Z,35.00
2022-10-21T23:44:16.823Z,33.70
2022-10-21T23:46:44.026Z,32.80
2022-10-21T23:49:11.149Z,32.90
2022-10-21T23:51:38.418Z,35.00
2022-10-21T23:54:05.916Z,34.80
2022-10-21T23:56:33.578Z,30.90
2022-10-21T23:59:01.809Z,31.40
